BTR682 EGSS-ESOW
Flight info
| Callsign | BTR682 |
|---|---|
| Flight time | 1h 53m |
| Altitude | 37000 |
| Route | CLN DCT EFMIH M604 GIVPO DCT LARGA DCT SOPTO P144 GOLUM N866 INVOL DCT PELIT N873 ARS |
| Aircraft | B738/M-SDE2E3FGHIRWXY/LB1 |
Departure
| Time | 2026-04-26 00:01 |
|---|---|
| Airport | London Stansted Airport (EGSS) |
Arrival
| Time | 2026-04-26 01:54 |
|---|---|
| Airport | Stockholm Västerås Airport (ESOW) |
| Time | Latitude | Longitude | Altitude | Speed | Heading |
|---|---|---|---|---|---|
| 2026-04-26 00:01 | 51.88795 | 0.41362 | 4028 ft | 263 kts | 114° |
| 2026-04-26 00:01 | 51.88005 | 0.44038 | 3992 ft | 264 kts | 114° |
| 2026-04-26 00:01 | 51.87212 | 0.46726 | 4024 ft | 266 kts | 114° |
| 2026-04-26 00:02 | 51.86416 | 0.49431 | 4022 ft | 267 kts | 114° |
| 2026-04-26 00:02 | 51.85617 | 0.52149 | 4032 ft | 268 kts | 114° |
| 2026-04-26 00:02 | 51.84815 | 0.54874 | 4024 ft | 269 kts | 114° |
| 2026-04-26 00:02 | 51.84011 | 0.57605 | 4022 ft | 269 kts | 114° |
| 2026-04-26 00:03 | 51.83315 | 0.60407 | 4136 ft | 270 kts | 103° |
| 2026-04-26 00:03 | 51.83329 | 0.63398 | 4934 ft | 266 kts | 71° |
| 2026-04-26 00:03 | 51.84184 | 0.66011 | 5866 ft | 265 kts | 49° |
| 2026-04-26 00:03 | 51.85436 | 0.68224 | 6699 ft | 269 kts | 45° |
| 2026-04-26 00:04 | 51.86747 | 0.70372 | 7451 ft | 274 kts | 44° |
| 2026-04-26 00:04 | 51.88128 | 0.72601 | 8225 ft | 279 kts | 44° |
| 2026-04-26 00:04 | 51.89509 | 0.74835 | 9008 ft | 283 kts | 44° |
| 2026-04-26 00:04 | 51.90912 | 0.77116 | 9802 ft | 288 kts | 44° |
| 2026-04-26 00:05 | 51.92332 | 0.79437 | 10548 ft | 293 kts | 44° |
| 2026-04-26 00:05 | 51.93796 | 0.81839 | 10808 ft | 316 kts | 44° |
| 2026-04-26 00:05 | 51.95394 | 0.84468 | 11008 ft | 339 kts | 44° |
| 2026-04-26 00:05 | 51.97088 | 0.87267 | 11363 ft | 355 kts | 44° |
| 2026-04-26 00:06 | 51.98829 | 0.90154 | 12017 ft | 360 kts | 44° |
| 2026-04-26 00:06 | 52.00583 | 0.93071 | 12782 ft | 362 kts | 44° |
| 2026-04-26 00:06 | 52.02372 | 0.96051 | 13534 ft | 366 kts | 44° |
| 2026-04-26 00:06 | 52.04135 | 0.98992 | 14221 ft | 370 kts | 44° |
| 2026-04-26 00:07 | 52.05940 | 1.02007 | 14859 ft | 373 kts | 44° |
| 2026-04-26 00:07 | 52.07757 | 1.05043 | 15508 ft | 377 kts | 44° |
| 2026-04-26 00:07 | 52.09592 | 1.08117 | 16152 ft | 380 kts | 44° |
| 2026-04-26 00:07 | 52.11445 | 1.11223 | 16783 ft | 384 kts | 44° |
| 2026-04-26 00:08 | 52.13312 | 1.14356 | 17408 ft | 388 kts | 44° |
| 2026-04-26 00:08 | 52.15199 | 1.17528 | 18035 ft | 391 kts | 45° |
| 2026-04-26 00:08 | 52.17100 | 1.20728 | 18641 ft | 395 kts | 45° |
| 2026-04-26 00:08 | 52.19019 | 1.23962 | 19175 ft | 398 kts | 45° |
| 2026-04-26 00:09 | 52.20949 | 1.27219 | 19735 ft | 401 kts | 45° |
| 2026-04-26 00:09 | 52.22892 | 1.30503 | 20265 ft | 404 kts | 44° |
| 2026-04-26 00:09 | 52.24852 | 1.33818 | 20785 ft | 407 kts | 44° |
| 2026-04-26 00:09 | 52.26824 | 1.37160 | 21298 ft | 411 kts | 44° |
| 2026-04-26 00:10 | 52.28813 | 1.40533 | 21804 ft | 414 kts | 44° |
| 2026-04-26 00:10 | 52.30816 | 1.43936 | 22308 ft | 417 kts | 44° |
| 2026-04-26 00:10 | 52.32831 | 1.47365 | 22790 ft | 420 kts | 45° |
| 2026-04-26 00:10 | 52.34864 | 1.50829 | 23269 ft | 423 kts | 45° |
| 2026-04-26 00:11 | 52.36911 | 1.54321 | 23733 ft | 427 kts | 45° |
| 2026-04-26 00:11 | 52.38969 | 1.57839 | 24142 ft | 430 kts | 45° |
| 2026-04-26 00:11 | 52.41045 | 1.61390 | 24528 ft | 432 kts | 45° |
| 2026-04-26 00:11 | 52.43128 | 1.64961 | 24915 ft | 435 kts | 45° |
| 2026-04-26 00:12 | 52.45222 | 1.68554 | 25296 ft | 437 kts | 45° |
| 2026-04-26 00:12 | 52.47329 | 1.72176 | 25667 ft | 440 kts | 45° |
| 2026-04-26 00:12 | 52.49444 | 1.75817 | 26040 ft | 442 kts | 45° |
| 2026-04-26 00:12 | 52.51571 | 1.79485 | 26392 ft | 445 kts | 45° |
| 2026-04-26 00:13 | 52.53712 | 1.83180 | 26731 ft | 448 kts | 46° |
| 2026-04-26 00:13 | 52.55862 | 1.86898 | 27074 ft | 450 kts | 46° |
| 2026-04-26 00:13 | 52.58021 | 1.90636 | 27398 ft | 452 kts | 46° |
| 2026-04-26 00:13 | 52.60195 | 1.94406 | 27733 ft | 455 kts | 46° |
| 2026-04-26 00:14 | 52.62374 | 1.98192 | 28049 ft | 458 kts | 46° |
| 2026-04-26 00:14 | 52.64570 | 2.02012 | 28339 ft | 460 kts | 46° |
| 2026-04-26 00:14 | 52.66778 | 2.05858 | 28657 ft | 463 kts | 46° |
| 2026-04-26 00:14 | 52.68989 | 2.09718 | 28988 ft | 464 kts | 46° |
| 2026-04-26 00:15 | 52.71209 | 2.13599 | 29274 ft | 467 kts | 46° |
| 2026-04-26 00:15 | 52.73442 | 2.17510 | 29550 ft | 469 kts | 46° |
| 2026-04-26 00:15 | 52.75680 | 2.21434 | 29830 ft | 471 kts | 46° |
| 2026-04-26 00:15 | 52.77926 | 2.25379 | 30181 ft | 471 kts | 46° |
| 2026-04-26 00:16 | 52.80165 | 2.29319 | 30610 ft | 469 kts | 47° |
| 2026-04-26 00:16 | 52.82398 | 2.33253 | 30965 ft | 468 kts | 47° |
| 2026-04-26 00:16 | 52.84620 | 2.37176 | 31312 ft | 467 kts | 47° |
| 2026-04-26 00:16 | 52.86835 | 2.41092 | 31637 ft | 466 kts | 47° |
| 2026-04-26 00:17 | 52.89050 | 2.45014 | 31965 ft | 466 kts | 47° |
| 2026-04-26 00:17 | 52.91256 | 2.48927 | 32284 ft | 465 kts | 47° |
| 2026-04-26 00:17 | 52.93463 | 2.52846 | 32595 ft | 464 kts | 47° |
| 2026-04-26 00:17 | 52.95663 | 2.56759 | 32943 ft | 463 kts | 47° |
| 2026-04-26 00:18 | 52.97950 | 2.60501 | 33245 ft | 462 kts | 40° |
| 2026-04-26 00:18 | 53.00494 | 2.63644 | 33520 ft | 462 kts | 31° |
| 2026-04-26 00:18 | 53.03324 | 2.66153 | 33838 ft | 461 kts | 26° |
| 2026-04-26 00:18 | 53.06210 | 2.68476 | 34129 ft | 460 kts | 25° |
| 2026-04-26 00:19 | 53.09094 | 2.70772 | 34368 ft | 460 kts | 25° |
| 2026-04-26 00:19 | 53.11980 | 2.73094 | 34606 ft | 460 kts | 25° |
| 2026-04-26 00:19 | 53.14854 | 2.75444 | 34852 ft | 460 kts | 26° |
| 2026-04-26 00:19 | 53.17717 | 2.77811 | 35082 ft | 459 kts | 26° |
| 2026-04-26 00:20 | 53.20572 | 2.80190 | 35318 ft | 459 kts | 26° |
| 2026-04-26 00:20 | 53.23424 | 2.82573 | 35578 ft | 458 kts | 26° |
| 2026-04-26 00:20 | 53.26265 | 2.84946 | 35826 ft | 457 kts | 26° |
| 2026-04-26 00:20 | 53.29105 | 2.87316 | 36067 ft | 456 kts | 25° |
| 2026-04-26 00:21 | 53.31957 | 2.89615 | 36336 ft | 454 kts | 24° |
| 2026-04-26 00:21 | 53.34814 | 2.91850 | 36583 ft | 452 kts | 24° |
| 2026-04-26 00:21 | 53.37666 | 2.94059 | 36811 ft | 451 kts | 24° |
| 2026-04-26 00:21 | 53.40512 | 2.96263 | 37045 ft | 451 kts | 24° |
| 2026-04-26 00:22 | 53.43358 | 2.98475 | 37242 ft | 450 kts | 24° |
| 2026-04-26 00:22 | 53.49033 | 3.02919 | 37305 ft | 451 kts | 24° |
| 2026-04-26 00:23 | 53.54711 | 3.07399 | 37307 ft | 450 kts | 24° |
| 2026-04-26 00:23 | 53.60382 | 3.11891 | 37305 ft | 450 kts | 24° |
| 2026-04-26 00:24 | 53.66038 | 3.16384 | 37310 ft | 449 kts | 24° |
| 2026-04-26 00:24 | 53.71686 | 3.20885 | 37314 ft | 449 kts | 24° |
| 2026-04-26 00:25 | 53.77325 | 3.25390 | 37315 ft | 449 kts | 24° |
| 2026-04-26 00:25 | 53.82966 | 3.29913 | 37320 ft | 448 kts | 24° |
| 2026-04-26 00:26 | 53.88568 | 3.34416 | 37319 ft | 449 kts | 24° |
| 2026-04-26 00:26 | 53.94206 | 3.38962 | 37314 ft | 449 kts | 24° |
| 2026-04-26 00:27 | 53.99855 | 3.43530 | 37322 ft | 450 kts | 24° |
| 2026-04-26 00:27 | 54.04548 | 3.47335 | 37329 ft | 450 kts | 24° |
| 2026-04-26 00:28 | 54.10210 | 3.51940 | 37324 ft | 451 kts | 24° |
| 2026-04-26 00:28 | 54.15875 | 3.56561 | 37322 ft | 452 kts | 24° |
| 2026-04-26 00:29 | 54.21552 | 3.61206 | 37318 ft | 453 kts | 24° |
| 2026-04-26 00:29 | 54.27231 | 3.65866 | 37321 ft | 453 kts | 24° |
| 2026-04-26 00:30 | 54.32923 | 3.70552 | 37319 ft | 454 kts | 24° |
| 2026-04-26 00:30 | 54.38611 | 3.75250 | 37323 ft | 454 kts | 24° |
| 2026-04-26 00:31 | 54.44302 | 3.79963 | 37318 ft | 454 kts | 24° |
| 2026-04-26 00:31 | 54.49987 | 3.84688 | 37320 ft | 454 kts | 24° |
| 2026-04-26 00:32 | 54.55665 | 3.89421 | 37317 ft | 453 kts | 24° |
| 2026-04-26 00:32 | 54.64161 | 3.96530 | 37317 ft | 452 kts | 24° |
| 2026-04-26 00:33 | 54.69817 | 4.01281 | 37314 ft | 451 kts | 24° |
| 2026-04-26 00:33 | 54.75457 | 4.06034 | 37317 ft | 451 kts | 24° |
| 2026-04-26 00:34 | 54.81090 | 4.10794 | 37312 ft | 450 kts | 24° |
| 2026-04-26 00:34 | 54.86546 | 4.16103 | 37307 ft | 452 kts | 36° |
| 2026-04-26 00:35 | 54.91029 | 4.23665 | 37314 ft | 453 kts | 46° |
| 2026-04-26 00:35 | 54.95240 | 4.31839 | 37300 ft | 454 kts | 46° |
| 2026-04-26 00:36 | 54.99461 | 4.39996 | 37300 ft | 454 kts | 46° |
| 2026-04-26 00:36 | 55.03710 | 4.48123 | 37297 ft | 454 kts | 46° |
| 2026-04-26 00:37 | 55.07967 | 4.56258 | 37294 ft | 454 kts | 45° |
| 2026-04-26 00:37 | 55.12220 | 4.64411 | 37296 ft | 454 kts | 45° |
| 2026-04-26 00:38 | 55.16471 | 4.72593 | 37294 ft | 455 kts | 45° |
| 2026-04-26 00:38 | 55.20718 | 4.80797 | 37296 ft | 455 kts | 45° |
| 2026-04-26 00:39 | 55.24959 | 4.89019 | 37300 ft | 455 kts | 45° |
| 2026-04-26 00:39 | 55.29201 | 4.97266 | 37297 ft | 455 kts | 45° |
| 2026-04-26 00:40 | 55.33433 | 5.05532 | 37301 ft | 455 kts | 45° |
| 2026-04-26 00:40 | 55.37658 | 5.13824 | 37293 ft | 455 kts | 45° |
| 2026-04-26 00:41 | 55.41875 | 5.22125 | 37292 ft | 455 kts | 45° |
| 2026-04-26 00:41 | 55.45990 | 5.30599 | 37282 ft | 457 kts | 52° |
| 2026-04-26 00:42 | 55.49524 | 5.39927 | 37284 ft | 458 kts | 54° |
| 2026-04-26 00:42 | 55.52951 | 5.49389 | 37285 ft | 457 kts | 54° |
| 2026-04-26 00:43 | 55.56400 | 5.58808 | 37282 ft | 457 kts | 53° |
| 2026-04-26 00:43 | 55.59874 | 5.68208 | 37282 ft | 456 kts | 53° |
| 2026-04-26 00:44 | 55.63321 | 5.77540 | 37278 ft | 456 kts | 53° |
| 2026-04-26 00:44 | 55.66784 | 5.86952 | 37275 ft | 456 kts | 53° |
| 2026-04-26 00:45 | 55.70232 | 5.96366 | 37269 ft | 455 kts | 53° |
| 2026-04-26 00:45 | 55.73673 | 6.05798 | 37264 ft | 455 kts | 53° |
| 2026-04-26 00:46 | 55.77104 | 6.15239 | 37263 ft | 455 kts | 53° |
| 2026-04-26 00:46 | 55.80526 | 6.24690 | 37260 ft | 455 kts | 53° |
| 2026-04-26 00:47 | 55.83939 | 6.34155 | 37262 ft | 454 kts | 53° |
| 2026-04-26 00:47 | 55.87343 | 6.43632 | 37257 ft | 454 kts | 53° |
| 2026-04-26 00:48 | 55.90738 | 6.53120 | 37253 ft | 454 kts | 53° |
| 2026-04-26 00:48 | 55.94125 | 6.62618 | 37241 ft | 453 kts | 53° |
| 2026-04-26 00:49 | 55.97472 | 6.72066 | 37241 ft | 453 kts | 53° |
| 2026-04-26 00:49 | 56.00825 | 6.81586 | 37238 ft | 453 kts | 53° |
| 2026-04-26 00:50 | 56.04169 | 6.91115 | 37240 ft | 452 kts | 52° |
| 2026-04-26 00:50 | 56.07505 | 7.00656 | 37237 ft | 452 kts | 52° |
| 2026-04-26 00:51 | 56.10828 | 7.10198 | 37234 ft | 451 kts | 52° |
| 2026-04-26 00:51 | 56.14144 | 7.19755 | 37231 ft | 451 kts | 52° |
| 2026-04-26 00:52 | 56.17446 | 7.29310 | 37229 ft | 451 kts | 52° |
| 2026-04-26 00:52 | 56.20741 | 7.38883 | 37223 ft | 450 kts | 52° |
| 2026-04-26 00:53 | 56.24023 | 7.48452 | 37223 ft | 450 kts | 52° |
| 2026-04-26 00:53 | 56.27302 | 7.58038 | 37219 ft | 449 kts | 52° |
| 2026-04-26 00:54 | 56.30572 | 7.67625 | 37216 ft | 449 kts | 52° |
| 2026-04-26 00:54 | 56.33830 | 7.77217 | 37222 ft | 449 kts | 52° |
| 2026-04-26 00:55 | 56.37078 | 7.86820 | 37205 ft | 448 kts | 52° |
| 2026-04-26 00:55 | 56.40317 | 7.96436 | 37218 ft | 448 kts | 52° |
| 2026-04-26 00:56 | 56.43546 | 8.06059 | 37205 ft | 448 kts | 52° |
| 2026-04-26 00:56 | 56.46767 | 8.15694 | 37208 ft | 447 kts | 52° |
| 2026-04-26 00:57 | 56.50035 | 8.25241 | 37203 ft | 445 kts | 50° |
| 2026-04-26 00:57 | 56.53427 | 8.34609 | 37205 ft | 444 kts | 49° |
| 2026-04-26 00:58 | 56.56808 | 8.43979 | 37206 ft | 444 kts | 49° |
| 2026-04-26 00:58 | 56.60163 | 8.53395 | 37199 ft | 444 kts | 50° |
| 2026-04-26 00:59 | 56.63502 | 8.62833 | 37202 ft | 444 kts | 50° |
| 2026-04-26 00:59 | 56.66806 | 8.72208 | 37199 ft | 443 kts | 49° |
| 2026-04-26 01:00 | 56.70128 | 8.81663 | 37200 ft | 443 kts | 49° |
| 2026-04-26 01:00 | 56.73438 | 8.91123 | 37197 ft | 443 kts | 49° |
| 2026-04-26 01:01 | 56.76732 | 9.00594 | 37197 ft | 443 kts | 49° |
| 2026-04-26 01:01 | 56.80019 | 9.10084 | 37196 ft | 442 kts | 49° |
| 2026-04-26 01:02 | 56.83297 | 9.19585 | 37195 ft | 442 kts | 49° |
| 2026-04-26 01:02 | 56.86566 | 9.29095 | 37190 ft | 441 kts | 49° |
| 2026-04-26 01:03 | 56.89822 | 9.38606 | 37201 ft | 441 kts | 49° |
| 2026-04-26 01:03 | 56.93068 | 9.48122 | 37202 ft | 441 kts | 49° |
| 2026-04-26 01:04 | 56.96305 | 9.57653 | 37195 ft | 440 kts | 49° |
| 2026-04-26 01:04 | 56.99532 | 9.67193 | 37199 ft | 440 kts | 49° |
| 2026-04-26 01:05 | 57.02755 | 9.76754 | 37185 ft | 440 kts | 49° |
| 2026-04-26 01:05 | 57.05965 | 9.86320 | 37191 ft | 440 kts | 49° |
| 2026-04-26 01:06 | 57.09164 | 9.95886 | 37195 ft | 439 kts | 49° |
| 2026-04-26 01:06 | 57.12677 | 10.04886 | 37198 ft | 428 kts | 40° |
| 2026-04-26 01:07 | 57.16522 | 10.13131 | 37196 ft | 426 kts | 39° |
| 2026-04-26 01:07 | 57.20392 | 10.21414 | 37192 ft | 427 kts | 40° |
| 2026-04-26 01:08 | 57.24235 | 10.29772 | 37190 ft | 427 kts | 40° |
| 2026-04-26 01:08 | 57.28064 | 10.38187 | 37180 ft | 427 kts | 40° |
| 2026-04-26 01:09 | 57.31880 | 10.46613 | 37185 ft | 427 kts | 40° |
| 2026-04-26 01:09 | 57.35692 | 10.55060 | 37181 ft | 427 kts | 40° |
| 2026-04-26 01:10 | 57.39492 | 10.63508 | 37174 ft | 427 kts | 40° |
| 2026-04-26 01:10 | 57.43286 | 10.71971 | 37176 ft | 426 kts | 40° |
| 2026-04-26 01:11 | 57.47070 | 10.80443 | 37178 ft | 426 kts | 40° |
| 2026-04-26 01:11 | 57.50847 | 10.88928 | 37178 ft | 426 kts | 40° |
| 2026-04-26 01:12 | 57.54612 | 10.97418 | 37176 ft | 425 kts | 40° |
| 2026-04-26 01:12 | 57.58370 | 11.05920 | 37172 ft | 425 kts | 40° |
| 2026-04-26 01:13 | 57.62098 | 11.14463 | 37174 ft | 424 kts | 41° |
| 2026-04-26 01:13 | 57.65793 | 11.23048 | 37170 ft | 426 kts | 42° |
| 2026-04-26 01:14 | 57.68705 | 11.30499 | 37162 ft | 428 kts | 44° |
| 2026-04-26 01:14 | 57.72106 | 11.39642 | 37158 ft | 428 kts | 45° |
| 2026-04-26 01:15 | 57.75503 | 11.48793 | 37147 ft | 427 kts | 44° |
| 2026-04-26 01:15 | 57.78902 | 11.57906 | 37143 ft | 427 kts | 44° |
| 2026-04-26 01:16 | 57.82307 | 11.67030 | 37141 ft | 426 kts | 44° |
| 2026-04-26 01:16 | 57.85701 | 11.76149 | 37141 ft | 426 kts | 44° |
| 2026-04-26 01:17 | 57.89087 | 11.85283 | 37146 ft | 426 kts | 44° |
| 2026-04-26 01:17 | 57.92469 | 11.94443 | 37148 ft | 426 kts | 44° |
| 2026-04-26 01:18 | 57.95842 | 12.03614 | 37144 ft | 426 kts | 45° |
| 2026-04-26 01:18 | 57.99207 | 12.12799 | 37148 ft | 426 kts | 45° |
| 2026-04-26 01:19 | 58.02563 | 12.21991 | 37156 ft | 426 kts | 45° |
| 2026-04-26 01:19 | 58.05917 | 12.31213 | 37148 ft | 426 kts | 45° |
| 2026-04-26 01:20 | 58.09262 | 12.40451 | 37151 ft | 426 kts | 45° |
| 2026-04-26 01:20 | 58.12608 | 12.49726 | 37142 ft | 426 kts | 45° |
| 2026-04-26 01:21 | 58.15942 | 12.59004 | 37145 ft | 426 kts | 45° |
| 2026-04-26 01:21 | 58.19270 | 12.68299 | 37139 ft | 426 kts | 45° |
| 2026-04-26 01:22 | 58.22594 | 12.77621 | 37124 ft | 426 kts | 45° |
| 2026-04-26 01:22 | 58.25884 | 12.86883 | 37119 ft | 426 kts | 45° |
| 2026-04-26 01:23 | 58.29187 | 12.96222 | 37117 ft | 426 kts | 45° |
| 2026-04-26 01:23 | 58.32484 | 13.05574 | 37120 ft | 425 kts | 45° |
| 2026-04-26 01:24 | 58.35768 | 13.14931 | 37118 ft | 425 kts | 46° |
| 2026-04-26 01:24 | 58.37414 | 13.19630 | 36855 ft | 430 kts | 45° |
| 2026-04-26 01:24 | 58.39079 | 13.24384 | 36384 ft | 430 kts | 45° |
| 2026-04-26 01:25 | 58.40729 | 13.29122 | 35779 ft | 429 kts | 45° |
| 2026-04-26 01:25 | 58.42376 | 13.33864 | 35168 ft | 429 kts | 44° |
| 2026-04-26 01:25 | 58.44020 | 13.38600 | 34555 ft | 429 kts | 44° |
| 2026-04-26 01:25 | 58.45668 | 13.43358 | 33938 ft | 428 kts | 43° |
| 2026-04-26 01:26 | 58.47295 | 13.48076 | 33438 ft | 423 kts | 43° |
| 2026-04-26 01:26 | 58.48901 | 13.52744 | 32948 ft | 419 kts | 43° |
| 2026-04-26 01:26 | 58.50493 | 13.57380 | 32479 ft | 414 kts | 42° |
| 2026-04-26 01:26 | 58.52063 | 13.61956 | 32030 ft | 409 kts | 42° |
| 2026-04-26 01:27 | 58.53616 | 13.66486 | 31586 ft | 405 kts | 42° |
| 2026-04-26 01:27 | 58.55151 | 13.70971 | 31154 ft | 400 kts | 41° |
| 2026-04-26 01:27 | 58.56666 | 13.75406 | 30722 ft | 396 kts | 41° |
| 2026-04-26 01:27 | 58.58167 | 13.79803 | 30288 ft | 392 kts | 41° |
| 2026-04-26 01:28 | 58.59649 | 13.84153 | 29814 ft | 388 kts | 41° |
| 2026-04-26 01:28 | 58.61115 | 13.88466 | 29328 ft | 383 kts | 41° |
| 2026-04-26 01:28 | 58.62561 | 13.92729 | 28895 ft | 378 kts | 41° |
| 2026-04-26 01:28 | 58.63978 | 13.96919 | 28520 ft | 371 kts | 40° |
| 2026-04-26 01:29 | 58.65370 | 14.01045 | 28140 ft | 365 kts | 40° |
| 2026-04-26 01:29 | 58.66741 | 14.05107 | 27694 ft | 361 kts | 40° |
| 2026-04-26 01:29 | 58.68101 | 14.09136 | 27220 ft | 358 kts | 40° |
| 2026-04-26 01:29 | 58.69452 | 14.13140 | 26768 ft | 355 kts | 40° |
| 2026-04-26 01:30 | 58.70767 | 14.17049 | 26355 ft | 351 kts | 40° |
| 2026-04-26 01:30 | 58.72088 | 14.20984 | 25929 ft | 348 kts | 41° |
| 2026-04-26 01:30 | 58.73390 | 14.24874 | 25507 ft | 345 kts | 41° |
| 2026-04-26 01:30 | 58.74683 | 14.28739 | 25087 ft | 342 kts | 41° |
| 2026-04-26 01:31 | 58.75961 | 14.32567 | 24683 ft | 339 kts | 41° |
| 2026-04-26 01:31 | 58.77228 | 14.36369 | 24286 ft | 336 kts | 41° |
| 2026-04-26 01:31 | 58.78481 | 14.40137 | 23895 ft | 333 kts | 41° |
| 2026-04-26 01:31 | 58.79726 | 14.43884 | 23468 ft | 330 kts | 41° |
| 2026-04-26 01:32 | 58.80957 | 14.47594 | 22976 ft | 328 kts | 41° |
| 2026-04-26 01:32 | 58.82182 | 14.51288 | 22487 ft | 326 kts | 41° |
| 2026-04-26 01:32 | 58.83399 | 14.54965 | 22013 ft | 324 kts | 42° |
| 2026-04-26 01:32 | 58.84608 | 14.58626 | 21536 ft | 323 kts | 42° |
| 2026-04-26 01:33 | 58.85813 | 14.62278 | 21029 ft | 322 kts | 43° |
| 2026-04-26 01:33 | 58.87014 | 14.65926 | 20599 ft | 320 kts | 43° |
| 2026-04-26 01:33 | 58.88201 | 14.69543 | 20194 ft | 318 kts | 43° |
| 2026-04-26 01:33 | 58.89379 | 14.73137 | 19803 ft | 315 kts | 44° |
| 2026-04-26 01:34 | 58.90546 | 14.76702 | 19429 ft | 313 kts | 44° |
| 2026-04-26 01:34 | 58.91706 | 14.80250 | 19037 ft | 311 kts | 44° |
| 2026-04-26 01:34 | 58.92856 | 14.83773 | 18672 ft | 308 kts | 45° |
| 2026-04-26 01:34 | 58.93995 | 14.87268 | 18300 ft | 306 kts | 45° |
| 2026-04-26 01:35 | 58.95128 | 14.90746 | 17866 ft | 305 kts | 45° |
| 2026-04-26 01:35 | 58.96252 | 14.94202 | 17473 ft | 302 kts | 46° |
| 2026-04-26 01:35 | 58.97369 | 14.97645 | 17095 ft | 300 kts | 46° |
| 2026-04-26 01:35 | 58.98471 | 15.01048 | 16745 ft | 297 kts | 46° |
| 2026-04-26 01:36 | 58.99564 | 15.04425 | 16374 ft | 295 kts | 47° |
| 2026-04-26 01:36 | 59.00651 | 15.07785 | 16019 ft | 293 kts | 47° |
| 2026-04-26 01:36 | 59.01736 | 15.11144 | 15663 ft | 295 kts | 48° |
| 2026-04-26 01:37 | 59.03923 | 15.17921 | 14930 ft | 296 kts | 49° |
| 2026-04-26 01:37 | 59.05009 | 15.21304 | 14580 ft | 295 kts | 49° |
| 2026-04-26 01:37 | 59.06091 | 15.24680 | 14223 ft | 294 kts | 50° |
| 2026-04-26 01:37 | 59.07167 | 15.28040 | 13872 ft | 293 kts | 50° |
| 2026-04-26 01:38 | 59.08240 | 15.31395 | 13487 ft | 292 kts | 50° |
| 2026-04-26 01:38 | 59.09311 | 15.34747 | 13105 ft | 291 kts | 50° |
| 2026-04-26 01:38 | 59.10372 | 15.38077 | 12758 ft | 289 kts | 51° |
| 2026-04-26 01:38 | 59.11426 | 15.41388 | 12399 ft | 287 kts | 51° |
| 2026-04-26 01:39 | 59.12472 | 15.44678 | 12063 ft | 285 kts | 51° |
| 2026-04-26 01:39 | 59.13513 | 15.47956 | 11707 ft | 284 kts | 51° |
| 2026-04-26 01:39 | 59.14550 | 15.51222 | 11354 ft | 283 kts | 51° |
| 2026-04-26 01:39 | 59.15580 | 15.54474 | 11016 ft | 281 kts | 51° |
| 2026-04-26 01:40 | 59.16605 | 15.57712 | 10671 ft | 280 kts | 51° |
| 2026-04-26 01:40 | 59.17619 | 15.60923 | 10460 ft | 274 kts | 51° |
| 2026-04-26 01:40 | 59.18599 | 15.64039 | 10325 ft | 266 kts | 51° |
| 2026-04-26 01:40 | 59.19550 | 15.67066 | 10208 ft | 257 kts | 51° |
| 2026-04-26 01:41 | 59.20499 | 15.69945 | 10089 ft | 247 kts | 47° |
| 2026-04-26 01:41 | 59.21528 | 15.72543 | 9946 ft | 239 kts | 44° |
| 2026-04-26 01:41 | 59.22570 | 15.75050 | 9689 ft | 236 kts | 44° |
| 2026-04-26 01:41 | 59.23605 | 15.77531 | 9410 ft | 235 kts | 44° |
| 2026-04-26 01:42 | 59.24624 | 15.79991 | 9134 ft | 232 kts | 44° |
| 2026-04-26 01:42 | 59.25633 | 15.82437 | 8903 ft | 230 kts | 44° |
| 2026-04-26 01:42 | 59.26630 | 15.84867 | 8656 ft | 228 kts | 44° |
| 2026-04-26 01:42 | 59.27615 | 15.87276 | 8408 ft | 227 kts | 44° |
| 2026-04-26 01:43 | 59.28610 | 15.89712 | 8171 ft | 232 kts | 44° |
| 2026-04-26 01:43 | 59.29630 | 15.92213 | 7918 ft | 238 kts | 45° |
| 2026-04-26 01:43 | 59.30667 | 15.94766 | 7658 ft | 240 kts | 45° |
| 2026-04-26 01:43 | 59.31703 | 15.97326 | 7382 ft | 239 kts | 45° |
| 2026-04-26 01:44 | 59.32729 | 15.99869 | 7118 ft | 237 kts | 45° |
| 2026-04-26 01:44 | 59.33751 | 16.02402 | 6852 ft | 236 kts | 45° |
| 2026-04-26 01:44 | 59.34765 | 16.04919 | 6599 ft | 235 kts | 45° |
| 2026-04-26 01:44 | 59.35775 | 16.07429 | 6326 ft | 234 kts | 45° |
| 2026-04-26 01:45 | 59.36783 | 16.09932 | 6045 ft | 233 kts | 45° |
| 2026-04-26 01:45 | 59.37784 | 16.12423 | 5769 ft | 232 kts | 45° |
| 2026-04-26 01:45 | 59.38763 | 16.14863 | 5537 ft | 227 kts | 45° |
| 2026-04-26 01:45 | 59.39721 | 16.17259 | 5269 ft | 220 kts | 45° |
| 2026-04-26 01:46 | 59.40645 | 16.19572 | 4981 ft | 212 kts | 46° |
| 2026-04-26 01:46 | 59.41237 | 16.22225 | 4695 ft | 217 kts | 72° |
| 2026-04-26 01:46 | 59.41328 | 16.25184 | 4427 ft | 216 kts | 82° |
| 2026-04-26 01:46 | 59.41299 | 16.28097 | 4141 ft | 211 kts | 82° |
| 2026-04-26 01:47 | 59.41267 | 16.30942 | 3868 ft | 206 kts | 82° |
| 2026-04-26 01:47 | 59.41242 | 16.33718 | 3603 ft | 201 kts | 81° |
| 2026-04-26 01:47 | 59.41218 | 16.36414 | 3430 ft | 192 kts | 81° |
| 2026-04-26 01:47 | 59.41197 | 16.39005 | 3452 ft | 190 kts | 80° |
| 2026-04-26 01:48 | 59.41182 | 16.41623 | 3462 ft | 194 kts | 81° |
| 2026-04-26 01:48 | 59.41081 | 16.44306 | 3458 ft | 201 kts | 90° |
| 2026-04-26 01:48 | 59.40800 | 16.47001 | 3452 ft | 201 kts | 92° |
| 2026-04-26 01:48 | 59.40505 | 16.49684 | 3455 ft | 201 kts | 92° |
| 2026-04-26 01:49 | 59.40232 | 16.52358 | 3451 ft | 197 kts | 84° |
| 2026-04-26 01:49 | 59.40540 | 16.54703 | 3418 ft | 165 kts | 42° |
| 2026-04-26 01:49 | 59.41370 | 16.56028 | 3451 ft | 149 kts | 24° |
| 2026-04-26 01:49 | 59.42354 | 16.56620 | 3254 ft | 148 kts | 9° |
| 2026-04-26 01:50 | 59.43350 | 16.57025 | 3053 ft | 145 kts | 9° |
| 2026-04-26 01:50 | 59.44320 | 16.57426 | 2863 ft | 140 kts | 8° |
| 2026-04-26 01:50 | 59.45266 | 16.57813 | 2705 ft | 137 kts | 8° |
| 2026-04-26 01:50 | 59.46171 | 16.58183 | 2520 ft | 129 kts | 8° |
| 2026-04-26 01:51 | 59.47045 | 16.58541 | 2326 ft | 128 kts | 7° |
| 2026-04-26 01:51 | 59.47922 | 16.58899 | 2154 ft | 130 kts | 7° |
| 2026-04-26 01:51 | 59.48810 | 16.59260 | 1966 ft | 130 kts | 6° |
| 2026-04-26 01:51 | 59.49698 | 16.59622 | 1784 ft | 131 kts | 6° |
| 2026-04-26 01:52 | 59.50594 | 16.59983 | 1592 ft | 133 kts | 5° |
| 2026-04-26 01:52 | 59.51509 | 16.60353 | 1388 ft | 136 kts | 6° |
| 2026-04-26 01:52 | 59.52417 | 16.60725 | 1239 ft | 128 kts | 6° |
| 2026-04-26 01:52 | 59.53245 | 16.61065 | 1046 ft | 118 kts | 6° |
| 2026-04-26 01:53 | 59.54078 | 16.61401 | 852 ft | 127 kts | 6° |
| 2026-04-26 01:53 | 59.54963 | 16.61759 | 670 ft | 131 kts | 7° |
| 2026-04-26 01:53 | 59.55847 | 16.62118 | 486 ft | 130 kts | 7° |
| 2026-04-26 01:53 | 59.56714 | 16.62470 | 304 ft | 127 kts | 5° |
| 2026-04-26 01:54 | 59.57568 | 16.62826 | 126 ft | 125 kts | 6° |
| 2026-04-26 01:54 | 59.58390 | 16.63156 | 28 ft | 113 kts | 5° |
| 2026-04-26 01:54 | 59.59026 | 16.63395 | 23 ft | 64 kts | 12° |
| 2026-04-26 01:54 | 59.59311 | 16.63506 | 27 ft | 32 kts | 10° |
| 2026-04-26 01:55 | 59.59467 | 16.63569 | 25 ft | 21 kts | 11° |
| 2026-04-26 01:55 | 59.59577 | 16.63597 | 28 ft | 12 kts | 346° |
| 2026-04-26 01:55 | 59.59615 | 16.63458 | 26 ft | 12 kts | 273° |
| 2026-04-26 01:55 | 59.59599 | 16.63297 | 30 ft | 12 kts | 246° |
| 2026-04-26 01:56 | 59.59549 | 16.63171 | 25 ft | 12 kts | 220° |
| 2026-04-26 01:56 | 59.59479 | 16.63100 | 25 ft | 11 kts | 196° |
| 2026-04-26 01:56 | 59.59402 | 16.63075 | 26 ft | 11 kts | 188° |
| 2026-04-26 01:56 | 59.59327 | 16.63057 | 23 ft | 11 kts | 186° |
| 2026-04-26 01:57 | 59.59255 | 16.63041 | 23 ft | 10 kts | 186° |
| 2026-04-26 01:57 | 59.59189 | 16.63018 | 23 ft | 7 kts | 197° |
| 2026-04-26 01:57 | 59.59166 | 16.62934 | 22 ft | 7 kts | 259° |
| 2026-04-26 01:57 | 59.59169 | 16.62917 | 22 ft | 0 kts | 309° |